createdAt,value
2022-08-04T00:03:52.550Z,28.91
2022-08-04T00:08:56.425Z,28.73
2022-08-04T00:14:02.355Z,28.63
2022-08-04T00:19:03.160Z,28.75
2022-08-04T00:24:12.014Z,28.97
2022-08-04T00:29:10.061Z,28.50
2022-08-04T00:34:07.480Z,28.69
2022-08-04T00:39:05.177Z,28.74
2022-08-04T00:44:09.120Z,28.84
2022-08-04T00:49:19.380Z,28.93
2022-08-04T00:54:22.584Z,28.83
2022-08-04T00:59:28.574Z,28.88
2022-08-04T01:04:32.754Z,28.75
2022-08-04T01:09:38.868Z,28.91
2022-08-04T01:14:44.312Z,28.98
2022-08-04T01:20:00.709Z,28.92
2022-08-04T01:25:11.100Z,28.84
2022-08-04T01:30:08.534Z,28.81
2022-08-04T01:35:09.891Z,29.02
2022-08-04T01:40:13.819Z,28.87
2022-08-04T01:45:12.300Z,28.83
2022-08-04T01:50:10.320Z,28.91
2022-08-04T01:55:09.647Z,28.98
2022-08-04T02:00:07.057Z,28.78
2022-08-04T02:05:04.647Z,28.80
2022-08-04T02:10:04.293Z,28.46
2022-08-04T02:15:04.038Z,28.34
2022-08-04T02:20:06.823Z,28.36
2022-08-04T02:25:05.358Z,27.96
2022-08-04T02:30:04.568Z,28.09
2022-08-04T02:35:03.784Z,28.29
2022-08-04T02:40:02.205Z,28.33
2022-08-04T02:44:59.894Z,28.14
2022-08-04T02:49:57.396Z,28.39
2022-08-04T02:54:55.190Z,28.42
2022-08-04T03:00:00.387Z,28.40
2022-08-04T03:04:57.700Z,28.13
2022-08-04T03:10:14.965Z,28.31
2022-08-04T03:15:24.974Z,28.20
2022-08-04T03:20:32.667Z,28.18
2022-08-04T03:25:57.013Z,28.08
2022-08-04T03:31:09.162Z,27.90
2022-08-04T03:36:28.597Z,27.84
2022-08-04T03:41:55.002Z,27.90
2022-08-04T03:47:11.961Z,28.05
2022-08-04T03:52:31.398Z,28.07
2022-08-04T03:57:43.781Z,28.09
2022-08-04T04:02:56.398Z,27.93
2022-08-04T04:08:09.338Z,27.72
2022-08-04T04:13:24.961Z,27.90
2022-08-04T04:18:38.539Z,27.87
2022-08-04T04:23:48.214Z,28.13
2022-08-04T04:28:53.947Z,28.27
2022-08-04T04:33:56.829Z,28.51
2022-08-04T04:39:00.987Z,28.94
2022-08-04T04:44:11.339Z,28.99
2022-08-04T04:49:13.373Z,28.99
2022-08-04T04:54:17.693Z,28.97
2022-08-04T04:59:17.585Z,29.14
2022-08-04T05:04:32.706Z,29.40
2022-08-04T05:09:35.369Z,29.65
2022-08-04T05:14:41.529Z,29.72
2022-08-04T05:19:44.401Z,29.63
2022-08-04T05:24:44.691Z,29.50
2022-08-04T05:29:46.323Z,29.19
2022-08-04T05:34:45.275Z,28.81
2022-08-04T05:39:46.254Z,29.00
2022-08-04T05:44:50.441Z,28.07
2022-08-04T05:49:55.682Z,27.48
2022-08-04T05:55:00.312Z,26.96
2022-08-04T05:59:59.245Z,27.39
2022-08-04T06:04:57.144Z,27.18
2022-08-04T06:09:54.170Z,26.97
2022-08-04T06:14:53.726Z,27.50
2022-08-04T06:20:00.623Z,27.60
2022-08-04T06:25:10.792Z,28.14
2022-08-04T06:30:13.503Z,28.22
2022-08-04T06:35:11.074Z,28.40
2022-08-04T06:40:29.283Z,28.62
2022-08-04T06:45:26.856Z,28.64
2022-08-04T06:51:25.391Z,28.81
2022-08-04T06:55:42.578Z,28.42
2022-08-04T07:00:40.562Z,28.19
2022-08-04T07:05:38.288Z,28.06
2022-08-04T07:10:35.621Z,27.96
2022-08-04T07:15:32.980Z,27.90
2022-08-04T07:20:35.354Z,27.86
2022-08-04T07:25:59.934Z,27.67
2022-08-04T07:30:54.743Z,27.67
2022-08-04T07:36:05.091Z,27.81
2022-08-04T07:41:38.238Z,27.74
2022-08-04T07:46:25.024Z,27.74
2022-08-04T07:51:28.240Z,27.86
2022-08-04T07:56:26.096Z,28.09
2022-08-04T08:01:23.468Z,28.02
2022-08-04T08:06:32.908Z,27.93
2022-08-04T08:12:38.841Z,27.99
2022-08-04T08:16:49.015Z,28.06
2022-08-04T08:21:58.507Z,27.93
2022-08-04T08:26:57.433Z,28.09
2022-08-04T08:31:56.548Z,28.21
2022-08-04T08:36:59.345Z,28.20
2022-08-04T08:42:10.828Z,28.47
2022-08-04T08:47:18.179Z,28.58
2022-08-04T08:53:00.984Z,28.66
2022-08-04T08:57:59.743Z,28.91
2022-08-04T09:03:08.847Z,28.55
2022-08-04T09:08:19.625Z,28.66
2022-08-04T09:13:19.738Z,28.73
2022-08-04T09:18:22.031Z,28.81
2022-08-04T09:23:22.594Z,29.23
2022-08-04T09:28:43.649Z,29.44
2022-08-04T09:33:45.582Z,29.36
2022-08-04T09:38:50.242Z,29.41
2022-08-04T09:43:58.821Z,30.13
2022-08-04T09:49:16.170Z,30.40
2022-08-04T09:54:31.036Z,30.19
2022-08-04T09:59:30.008Z,30.03
2022-08-04T10:04:29.148Z,29.94
2022-08-04T10:09:43.396Z,30.34
2022-08-04T10:14:47.910Z,30.82
2022-08-04T10:19:46.669Z,31.01
2022-08-04T10:24:53.767Z,30.71
2022-08-04T10:29:50.533Z,30.73
2022-08-04T10:35:02.727Z,30.48
2022-08-04T10:40:21.407Z,30.81
2022-08-04T10:45:18.691Z,31.14
2022-08-04T10:50:26.281Z,31.26
2022-08-04T10:56:06.552Z,31.23
2022-08-04T11:00:45.917Z,31.40
2022-08-04T11:05:45.519Z,31.51
2022-08-04T11:10:45.851Z,31.50
2022-08-04T11:15:46.397Z,31.84
2022-08-04T11:20:48.971Z,31.88
2022-08-04T11:25:52.070Z,31.89
2022-08-04T11:30:52.614Z,31.64
2022-08-04T11:35:55.742Z,31.82
2022-08-04T11:41:02.536Z,31.76
2022-08-04T11:46:02.031Z,32.13
2022-08-04T11:51:01.861Z,31.92
2022-08-04T11:56:07.819Z,32.20
2022-08-04T12:01:10.687Z,32.21
2022-08-04T12:06:14.055Z,32.43
2022-08-04T12:11:15.926Z,32.28
2022-08-04T12:16:15.664Z,32.24
2022-08-04T12:21:17.682Z,32.43
2022-08-04T12:26:20.808Z,32.19
2022-08-04T12:31:19.535Z,32.33
2022-08-04T12:36:21.552Z,32.33
2022-08-04T12:41:22.929Z,32.47
2022-08-04T12:46:20.870Z,32.51
2022-08-04T12:52:06.582Z,32.54
2022-08-04T12:56:36.739Z,32.89
2022-08-04T13:02:08.594Z,32.46
2022-08-04T13:06:56.897Z,32.51
2022-08-04T13:11:55.600Z,32.43
2022-08-04T13:16:57.274Z,32.37
2022-08-04T13:22:02.709Z,32.30
2022-08-04T13:27:03.577Z,32.39
2022-08-04T13:32:02.128Z,32.33
2022-08-04T13:37:01.500Z,32.37
2022-08-04T13:41:59.975Z,32.70
2022-08-04T13:46:58.724Z,32.51
2022-08-04T13:51:58.233Z,31.98
2022-08-04T13:56:59.951Z,31.97
2022-08-04T14:01:59.206Z,32.41
2022-08-04T14:06:59.131Z,32.41
2022-08-04T14:12:38.266Z,32.48
2022-08-04T14:17:24.522Z,32.86
2022-08-04T14:22:33.045Z,33.20
2022-08-04T14:27:40.248Z,33.29
2022-08-04T14:32:53.601Z,32.71
2022-08-04T14:37:55.163Z,32.61
2022-08-04T14:42:55.452Z,32.81
2022-08-04T14:47:53.386Z,32.91
2022-08-04T14:52:50.153Z,32.85
2022-08-04T14:58:35.528Z,32.58
2022-08-04T15:03:07.951Z,32.71
2022-08-04T15:08:04.753Z,32.72
2022-08-04T15:13:02.073Z,32.77
2022-08-04T15:17:59.266Z,32.55
2022-08-04T15:22:56.694Z,32.74
2022-08-04T15:27:54.379Z,32.78
2022-08-04T15:32:52.923Z,32.60
2022-08-04T15:37:54.658Z,32.83
2022-08-04T15:43:02.915Z,32.84
2022-08-04T15:48:32.893Z,32.61
2022-08-04T15:53:53.484Z,32.61
2022-08-04T15:58:49.895Z,32.57
2022-08-04T16:03:59.494Z,32.41
2022-08-04T16:08:58.624Z,32.63
2022-08-04T16:14:08.164Z,32.41
2022-08-04T16:19:05.960Z,32.47
2022-08-04T16:24:12.351Z,32.02
2022-08-04T16:29:23.770Z,32.29
2022-08-04T16:34:50.147Z,32.07
2022-08-04T16:39:50.086Z,32.13
2022-08-04T16:44:58.722Z,32.43
2022-08-04T16:50:02.063Z,32.55
2022-08-04T16:54:58.844Z,32.60
2022-08-04T16:59:56.829Z,32.72
2022-08-04T17:05:07.391Z,32.75
2022-08-04T17:10:05.808Z,32.65
2022-08-04T17:15:03.205Z,32.61
2022-08-04T17:19:59.897Z,32.44
2022-08-04T17:24:59.463Z,32.58
2022-08-04T17:29:56.888Z,32.37
2022-08-04T17:34:54.669Z,32.38
2022-08-04T17:39:52.018Z,32.41
2022-08-04T17:44:48.809Z,32.41
2022-08-04T17:49:53.239Z,32.25
2022-08-04T17:54:58.674Z,32.26
2022-08-04T18:00:00.227Z,32.17
2022-08-04T18:05:06.995Z,32.20
2022-08-04T18:10:32.779Z,32.28
2022-08-04T18:15:25.121Z,32.16
2022-08-04T18:20:37.938Z,32.14
2022-08-04T18:25:50.951Z,32.07
2022-08-04T18:30:55.030Z,31.98
2022-08-04T18:36:34.274Z,31.94
2022-08-04T18:41:10.129Z,32.06
2022-08-04T18:46:14.368Z,31.90
2022-08-04T18:51:23.528Z,31.99
2022-08-04T18:56:30.029Z,31.83
2022-08-04T19:02:16.423Z,31.90
2022-08-04T19:06:48.420Z,31.87
2022-08-04T19:11:54.592Z,31.87
2022-08-04T19:16:52.849Z,31.89
2022-08-04T19:32:24.384Z,31.93
2022-08-04T19:37:57.357Z,31.76
2022-08-04T19:42:41.804Z,31.83
2022-08-04T19:48:16.913Z,31.62
2022-08-04T19:52:57.447Z,31.44
2022-08-04T19:57:56.651Z,31.53
2022-08-04T20:02:53.429Z,31.51
2022-08-04T20:07:50.366Z,31.50
2022-08-04T20:12:55.741Z,31.47
2022-08-04T20:18:08.232Z,31.34
2022-08-04T20:23:10.216Z,31.14
2022-08-04T20:28:08.634Z,31.12
2022-08-04T20:33:22.650Z,31.21
2022-08-04T20:38:32.669Z,31.22
2022-08-04T20:43:31.533Z,31.06
2022-08-04T20:48:28.495Z,30.96
2022-08-04T20:53:46.755Z,30.83
2022-08-04T20:58:42.528Z,30.69
2022-08-04T21:03:59.908Z,30.76
2022-08-04T21:08:57.883Z,30.96
2022-08-04T21:13:55.245Z,30.90
2022-08-04T21:18:53.210Z,30.96
2022-08-04T21:23:49.820Z,30.93
2022-08-04T21:28:47.107Z,30.98
2022-08-04T21:33:50.491Z,31.08
2022-08-04T21:38:51.420Z,30.99
2022-08-04T21:43:48.874Z,30.94
2022-08-04T21:54:03.904Z,30.81
2022-08-04T21:59:00.632Z,30.82
2022-08-04T22:03:58.144Z,30.54
2022-08-04T22:08:55.324Z,30.48
2022-08-04T22:14:11.038Z,30.50
2022-08-04T22:19:10.895Z,30.40
2022-08-04T22:24:07.875Z,30.46
2022-08-04T22:29:14.046Z,30.25
2022-08-04T22:34:12.090Z,30.39
2022-08-04T22:39:09.422Z,30.47
2022-08-04T22:44:06.021Z,30.57
2022-08-04T22:49:02.811Z,30.62
2022-08-04T22:54:01.658Z,30.82
2022-08-04T22:58:58.526Z,30.74
2022-08-04T23:03:56.098Z,30.71
2022-08-04T23:08:53.032Z,30.75
2022-08-04T23:13:50.732Z,30.55
2022-08-04T23:18:49.086Z,30.71
2022-08-04T23:24:00.990Z,30.77
2022-08-04T23:28:59.575Z,30.74
2022-08-04T23:34:00.521Z,30.87
2022-08-04T23:38:58.599Z,31.05
2022-08-04T23:43:55.927Z,31.14
2022-08-04T23:48:53.357Z,30.97
2022-08-04T23:54:01.638Z,31.06
2022-08-04T23:59:00.199Z,31.11
